Data for 06/19/2010

Time Sea-Level Adjusted Pressure Absolute Pressure Temperature Relative Humidity Dew Point   
(mb) (inHg) (mb) (inHg) (C) (F) (%) (C) (F)
00:05 1019 30.09 848 25.04 10.5 50.9 68 4.8 40.7
00:10 1019 30.09 848 25.04 10.5 50.9 68 4.8 40.7
00:15 1019 30.09 848 25.04 10.5 50.9 68 4.8 40.7
00:20 1019 30.09 848 25.04 10.5 50.8 67 4.7 40.5
00:25 1019 30.09 848 25.04 10.5 50.9 68 4.8 40.7
00:30 1018 30.06 848 25.04 10.4 50.8 68 4.8 40.6
00:35 1018 30.06 848 25.04 10.4 50.7 68 4.9 40.7
00:40 1018 30.06 848 25.04 10.3 50.5 69 4.8 40.6
00:45 1018 30.06 848 25.04 10.3 50.5 68 4.8 40.6
00:50 1018 30.06 848 25.04 10.3 50.5 69 4.8 40.7
00:55 1018 30.06 848 25.04 10.2 50.3 69 4.8 40.7
01:00 1018 30.06 848 25.04 10.1 50.1 70 4.9 40.8
01:05 1018 30.06 848 25.04 10 49.9 70 4.8 40.6
01:10 1018 30.06 848 25.04 9.9 49.9 70 4.7 40.5
01:15 1018 30.06 848 25.04 9.9 49.9 70 4.7 40.5
01:20 1018 30.06 848 25.04 9.9 49.8 70 4.8 40.6
01:25 1018 30.06 848 25.04 9.8 49.7 71 4.8 40.6
01:30 1018 30.06 848 25.04 9.7 49.5 71 4.7 40.5
01:35 1018 30.06 848 25.04 9.7 49.5 71 4.8 40.6
01:40 1019 30.09 848 25.04 9.7 49.4 72 4.8 40.6
01:45 1019 30.09 848 25.04 9.7 49.4 72 4.8 40.7
01:50 1019 30.09 848 25.04 9.5 49.1 73 4.9 40.8
01:55 1019 30.09 848 25.04 9.4 48.8 73 4.8 40.7
02:00 1019 30.09 848 25.04 9.3 48.7 73 4.8 40.6
02:05 1019 30.09 848 25.04 9.3 48.8 73 4.8 40.7
02:10 1019 30.09 848 25.04 9.3 48.7 73 4.7 40.5
02:15 1019 30.09 848 25.04 9.2 48.6 74 4.8 40.6
02:20 1019 30.09 848 25.04 9.2 48.5 74 4.8 40.6
02:25 1019 30.09 848 25.04 9.1 48.4 74 4.8 40.7
02:30 1019 30.09 848 25.04 9.1 48.3 74 4.8 40.6
02:35 1019 30.09 848 25.04 9.1 48.3 75 4.8 40.7
02:40 1019 30.09 848 25.04 9 48.2 75 4.7 40.5
02:45 1019 30.09 848 25.04 8.9 48.1 75 4.7 40.4
02:50 1019 30.09 848 25.04 9 48.1 75 4.7 40.4
02:55 1019 30.09 848 25.04 8.9 48.1 75 4.8 40.6
03:00 1019 30.09 848 25.04 8.8 47.9 75 4.7 40.4
03:05 1019 30.09 848 25.04 8.8 47.9 76 4.8 40.6
03:10 1019 30.09 848 25.04 8.8 47.8 76 4.7 40.5
03:15 1019 30.09 848 25.04 8.7 47.7 76 4.7 40.5
03:20 1019 30.09 848 25.04 8.8 47.8 76 4.7 40.5
03:25 1019 30.09 848 25.04 8.8 47.8 76 4.8 40.6
03:30 1019 30.09 848 25.04 8.7 47.7 76 4.8 40.6
03:35 1019 30.09 848 25.04 8.7 47.6 76 4.7 40.5
03:40 1019 30.09 848 25.04 8.7 47.6 76 4.8 40.6
03:45 1019 30.09 848 25.04 8.6 47.5 77 4.8 40.6
03:50 1019 30.09 848 25.04 8.6 47.4 77 4.7 40.5
03:55 1019 30.09 848 25.04 8.6 47.4 77 4.7 40.5
04:00 1019 30.09 848 25.04 8.6 47.5 77 4.8 40.6
04:05 1019 30.09 848 25.04 8.6 47.4 77 4.8 40.6
04:10 1018 30.06 848 25.04 8.6 47.4 77 4.8 40.7
04:15 1019 30.09 848 25.04 8.5 47.4 77 4.8 40.7
04:20 1019 30.09 848 25.04 8.5 47.3 78 4.9 40.7
04:25 1019 30.09 848 25.04 8.4 47.2 78 4.9 40.8
04:30 1019 30.09 848 25.04 8.4 47.1 78 4.9 40.7
04:35 1019 30.09 848 25.04 8.4 47.2 78 4.9 40.8
04:40 1018 30.06 848 25.04 8.4 47.1 79 4.9 40.8
04:45 1018 30.06 848 25.04 8.4 47.1 78 4.9 40.7
04:50 1018 30.06 848 25.04 8.4 47 78 4.8 40.7
04:55 1018 30.06 848 25.04 8.3 46.9 79 4.9 40.8
05:00 1018 30.06 848 25.04 8.3 46.9 79 4.9 40.8
05:05 1018 30.06 848 25.04 8.3 46.9 79 4.9 40.8
05:10 1018 30.06 848 25.04 8.3 46.9 80 4.9 40.9
05:15 1019 30.09 848 25.04 8.2 46.8 79 4.9 40.8
05:20 1019 30.09 848 25.04 8.2 46.8 80 4.9 40.9
05:25 1019 30.09 848 25.04 8.2 46.8 80 4.9 40.8
05:30 1019 30.09 848 25.04 8.2 46.7 80 4.9 40.8
05:35 1019 30.09 848 25.04 8.1 46.6 80 4.9 40.8
05:40 1019 30.09 848 25.04 8.1 46.6 80 4.9 40.8
05:45 1019 30.09 848 25.04 8.1 46.6 80 4.9 40.8
05:50 1019 30.09 848 25.04 8.2 46.7 79 4.8 40.7
05:55 1019 30.09 848 25.04 8.2 46.7 80 4.9 40.7
06:00 1019 30.09 848 25.04 8.1 46.6 80 4.8 40.7
06:05 1019 30.09 848 25.04 8.2 46.7 79 4.8 40.6
06:10 1019 30.09 848 25.04 8.2 46.8 79 4.8 40.6
06:15 1019 30.09 848 25.04 8.2 46.8 79 4.8 40.6
06:20 1019 30.09 848 25.04 8.2 46.8 79 4.8 40.6
06:25 1019 30.09 848 25.04 8.3 46.9 78 4.7 40.5
06:30 1019 30.09 848 25.04 8.3 46.9 79 4.8 40.7
06:35 1019 30.09 848 25.04 8.3 46.9 79 4.8 40.7
06:40 1019 30.09 848 25.04 8.2 46.8 79 4.8 40.7
06:45 1019 30.09 848 25.04 8.3 47 78 4.8 40.6
06:50 1019 30.09 848 25.04 8.2 46.8 80 4.9 40.9
06:55 1019 30.09 848 25.04 8.3 46.9 78 4.7 40.5
07:00 1019 30.09 849 25.07 8.4 47.1 78 4.9 40.7
07:05 1020 30.12 849 25.07 8.3 47 79 4.9 40.8
07:10 1019 30.09 849 25.07 8.3 47 79 4.9 40.7
07:15 1019 30.09 849 25.07 8.4 47.1 78 4.8 40.6
07:20 1019 30.09 849 25.07 8.6 47.4 78 4.9 40.8
07:25 1019 30.09 849 25.07 8.6 47.5 77 4.8 40.7
07:30 1019 30.09 848 25.04 8.8 47.8 76 4.9 40.7
07:35 1019 30.09 848 25.04 8.9 48.1 75 4.8 40.7
07:40 1019 30.09 848 25.04 9.1 48.3 76 5 41
07:45 1019 30.09 848 25.04 9.1 48.4 75 5 40.9
07:50 1019 30.09 848 25.04 9.1 48.3 75 5 40.9
07:55 1019 30.09 848 25.04 9.1 48.3 76 5.1 41.2
08:00 1019 30.09 848 25.04 9 48.3 76 5.1 41.1
08:05 1019 30.09 848 25.04 9 48.1 76 5 41
08:10 1019 30.09 848 25.04 9 48.3 76 5 41.1
08:15 1019 30.09 848 25.04 9.1 48.4 76 5.1 41.1
08:20 1019 30.09 848 25.04 9.2 48.6 76 5.2 41.3
08:25 1019 30.09 848 25.04 9.2 48.6 75 5.1 41.2
08:30 1019 30.09 848 25.04 9.3 48.7 75 5.1 41.1
08:35 1019 30.09 848 25.04 9.5 49 74 5 41
08:40 1019 30.09 848 25.04 9.7 49.4 73 5.2 41.3
08:45 1019 30.09 848 25.04 9.7 49.5 73 5.1 41.2
08:50 1019 30.09 848 25.04 9.8 49.6 72 5.1 41.1
08:55 1019 30.09 848 25.04 9.9 49.8 72 5.1 41.2
09:00 1019 30.09 848 25.04 9.8 49.7 73 5.3 41.5
09:05 1019 30.09 848 25.04 9.7 49.5 73 5.2 41.4
09:10 1019 30.09 848 25.04 9.7 49.4 73 5 41.1
09:15 1019 30.09 848 25.04 9.7 49.5 73 5.1 41.2
09:20 1019 30.09 848 25.04 9.9 49.8 72 5.1 41.1
09:25 1019 30.09 848 25.04 10.1 50.2 72 5.2 41.4
09:30 1019 30.09 848 25.04 10.3 50.5 72 5.4 41.7
09:35 1019 30.09 848 25.04 10.4 50.7 71 5.3 41.5
09:40 1019 30.09 848 25.04 10.6 51.1 69 5.3 41.5
09:45 1019 30.09 848 25.04 10.6 51 70 5.4 41.7
09:50 1019 30.09 848 25.04 10.7 51.2 69 5.3 41.5
09:55 1019 30.09 848 25.04 11.3 52.3 65 5 40.9
10:00 1019 30.09 848 25.04 11.7 53 65 5.3 41.6
10:05 1019 30.09 848 25.04 12.1 53.7 63 5.2 41.3
10:10 1019 30.09 848 25.04 12.2 54 62 5.3 41.5
10:15 1019 30.09 848 25.04 12.7 54.9 60 5.2 41.4
10:20 1019 30.09 848 25.04 12.7 54.8 61 5.3 41.5
10:25 1019 30.09 848 25.04 12.9 55.2 60 5.3 41.5
10:30 1019 30.09 848 25.04 13.3 55.9 59 5.4 41.8
10:35 1019 30.09 848 25.04 13.6 56.5 57 5.4 41.8
10:40 1019 30.09 848 25.04 13.9 57.1 55 5.1 41.1
10:45 1019 30.09 848 25.04 14.3 57.7 52 4.7 40.5
10:50 1019 30.09 848 25.04 14.7 58.5 56 6.1 43
10:55 1019 30.09 848 25.04 14.6 58.3 59 6.7 44.1
11:00 1019 30.09 848 25.04 14.2 57.6 59 6.4 43.5
11:05 1019 30.09 848 25.04 14.2 57.5 61 6.8 44.2
11:10 1019 30.09 848 25.04 14.3 57.8 58 6.2 43.1
11:15 1019 30.09 848 25.04 14.5 58.1 56 5.8 42.5
11:20 1019 30.09 848 25.04 15.2 59.4 55 6.2 43.2
11:25 1019 30.09 848 25.04 15.3 59.6 56 6.7 44
11:30 1019 30.09 848 25.04 15.7 60.3 54 6.5 43.6
11:35 1019 30.09 848 25.04 15.1 59.2 56 6.4 43.5
11:40 1019 30.09 848 25.04 15.6 60.1 52 5.9 42.7
11:45 1019 30.09 848 25.04 15.7 60.3 51 5.8 42.5
11:50 1019 30.09 848 25.04 16.6 61.8 47 5.5 41.9
11:55 1019 30.09 848 25.04 17.7 63.8 47 6.4 43.5
12:00 1019 30.09 848 25.04 18.1 64.6 47 6.6 43.8
12:05 1019 30.09 848 25.04 17.7 63.8 49 7 44.5
12:10 1019 30.09 848 25.04 16.6 61.8 53 7 44.6
12:15 1019 30.09 848 25.04 16.5 61.7 51 6.5 43.6
12:20 1019 30.09 848 25.04 17.8 64 48 6.6 43.9
12:25 1019 30.09 848 25.04 18.4 65.1 46 6.6 43.8
12:30 1019 30.09 848 25.04 18.5 65.2 48 7.5 45.5
12:35 1019 30.09 848 25.04 17.4 63.3 46 5.9 42.6
12:40 1019 30.09 848 25.04 18.5 65.4 45 6.5 43.7
12:45 1018 30.06 848 25.04 18.9 66.1 42 6 42.8
12:50 1018 30.06 848 25.04 18.4 65 47 7 44.6
12:55 1018 30.06 848 25.04 17.6 63.6 48 6.6 43.9
13:00 1018 30.06 848 25.04 18.2 64.7 45 6.3 43.4
13:05 1018 30.06 847 25.01 19.2 66.5 45 7.1 44.8
13:10 1018 30.06 847 25.01 20 68.1 41 6.7 44
13:15 1018 30.06 847 25.01 20.9 69.5 39 6.5 43.7
13:20 1018 30.06 847 25.01 20.7 69.2 42 7.5 45.5
13:25 1018 30.06 847 25.01 19 66.2 47 7.7 45.8
13:30 1018 30.06 847 25.01 19.5 67 43 6.7 44.1
13:35 1018 30.06 847 25.01 19.2 66.5 45 6.9 44.5
13:40 1018 30.06 847 25.01 19.6 67.4 43 6.7 44.1
13:45 1018 30.06 847 25.01 19.5 67 43 6.6 43.8
13:50 1018 30.06 847 25.01 20.6 69.1 39 6.5 43.7
13:55 1018 30.06 847 25.01 21.2 70.2 36 5.8 42.5
14:00 1018 30.06 847 25.01 20.8 69.5 39 6.6 43.9
14:05 1018 30.06 847 25.01 21 69.8 36 5.7 42.2
14:10 1018 30.06 847 25.01 21 69.7 36 5.6 42.1
14:15 1018 30.06 847 25.01 20.9 69.7 34 4.6 40.3
14:20 1018 30.06 847 25.01 21.4 70.5 32 4.2 39.5
14:25 1018 30.06 847 25.01 21.5 70.8 33 4.7 40.5
14:30 1018 30.06 847 25.01 22.1 71.7 34 5.5 41.9
14:35 1018 30.06 847 25.01 22.2 71.9 29 3.5 38.2
14:40 1018 30.06 847 25.01 22 71.5 33 5.2 41.4
14:45 1018 30.06 847 25.01 22.5 72.4 29 3.9 38.9
14:50 1018 30.06 847 25.01 22.2 71.9 31 4.2 39.6
14:55 1018 30.06 847 25.01 22.3 72.1 29 3.7 38.6
15:00 1018 30.06 847 25.01 22.9 73.2 28 3.8 38.9
15:05 1018 30.06 847 25.01 23 73.5 28 3.5 38.4
15:10 1018 30.06 847 25.01 23.5 74.4 26 3.2 37.7
15:15 1018 30.06 847 25.01 23.5 74.4 25 2.7 36.8
15:20 1017 30.03 847 25.01 23.9 74.9 25 2.6 36.7
15:25 1017 30.03 847 25.01 23.7 74.6 25 2.6 36.7
15:30 1018 30.06 847 25.01 23.3 74 25 2.3 36.1
15:35 1018 30.06 847 25.01 23.7 74.7 24 2.2 36
15:40 1018 30.06 847 25.01 23.7 74.6 25 2.6 36.6
15:45 1017 30.03 847 25.01 23.9 75.1 24 2.3 36.1
15:50 1017 30.03 847 25.01 23.7 74.7 23 1.4 34.6
15:55 1017 30.03 847 25.01 22.1 71.8 25 1.6 34.8
16:00 1017 30.03 847 25.01 21.8 71.2 23 0.1 32.2
16:05 1017 30.03 847 25.01 22.4 72.4 24 1.3 34.4
16:10 1017 30.03 847 25.01 21.7 71.1 27 2.3 36.2
16:15 1017 30.03 847 25.01 22 71.7 27 2.3 36.1
16:20 1017 30.03 846 24.98 22.7 72.9 26 2.2 35.9
16:25 1017 30.03 847 25.01 22.6 72.7 27 2.6 36.7
16:30 1017 30.03 847 25.01 22.8 73 23 0.9 33.7
16:35 1017 30.03 846 24.98 23.6 74.6 24 2.3 36.1
16:40 1017 30.03 846 24.98 23 73.3 19 -1.5 29.4
16:45 1017 30.03 847 25.01 22.5 72.4 23 0.7 33.2
16:50 1017 30.03 847 25.01 21.6 71 26 1.5 34.6
16:55 1017 30.03 847 25.01 21.4 70.5 26 1.3 34.3
17:00 1017 30.03 847 25.01 21.8 71.3 26 1.8 35.2
17:05 1017 30.03 847 25.01 21.9 71.3 26 1.4 34.6
17:10 1017 30.03 847 25.01 22.2 71.9 26 1.8 35.2
17:15 1017 30.03 847 25.01 21.9 71.3 28 2.5 36.5
17:20 1017 30.03 847 25.01 21.6 70.8 27 2 35.6
17:25 1017 30.03 847 25.01 21.3 70.3 28 2.2 36
17:30 1018 30.06 847 25.01 21.4 70.4 29 2.9 37.2
17:35 1018 30.06 847 25.01 21.4 70.5 29 2.7 36.9
17:40 1018 30.06 847 25.01 21.2 70.1 30 3 37.4
17:45 1018 30.06 847 25.01 20.9 69.6 33 4.1 39.3
17:50 1018 30.06 848 25.04 19.9 67.8 35 4.3 39.7
17:55 1019 30.09 848 25.04 18.9 66 41 5.4 41.7
18:00 1019 30.09 848 25.04 18.3 64.9 44 6.1 42.9
18:05 1019 30.09 848 25.04 17.4 63.3 48 6.3 43.4
18:10 1019 30.09 849 25.07 16.8 62.2 52 7 44.5
18:15 1020 30.12 849 25.07 15.6 60.1 57 7.2 45
18:20 1020 30.12 849 25.07 14.4 58 68 8.6 47.5
18:25 1020 30.12 850 25.1 13.9 57 67 7.9 46.2
18:30 1020 30.12 850 25.1 14.1 57.3 62 7.1 44.7
18:35 1020 30.12 850 25.1 14.4 57.9 62 7.3 45.1
18:40 1021 30.15 850 25.1 13.8 56.9 69 8.2 46.8
18:45 1021 30.15 850 25.1 13.5 56.4 67 7.5 45.5
18:50 1021 30.15 850 25.1 13.4 56.2 70 8 46.5
18:55 1021 30.15 850 25.1 13.3 56 68 7.6 45.6
19:00 1020 30.12 849 25.07 13.1 55.6 70 7.8 46
19:05 1020 30.12 849 25.07 12.7 54.8 78 8.9 48
19:10 1020 30.12 849 25.07 12.2 53.9 81 9 48.2
19:15 1020 30.12 849 25.07 12.3 54.1 80 8.9 48.1
19:20 1020 30.12 849 25.07 12.6 54.7 73 8 46.4
19:25 1020 30.12 849 25.07 13 55.4 71 8 46.3
19:30 1020 30.12 849 25.07 13.3 55.9 75 8.9 48
19:35 1020 30.12 849 25.07 13.4 56.1 73 8.7 47.7
19:40 1020 30.12 849 25.07 13.5 56.3 72 8.6 47.4
19:45 1020 30.12 849 25.07 13.7 56.6 67 7.8 46.1
19:50 1020 30.12 849 25.07 13.8 56.9 72 8.8 47.9
19:55 1020 30.12 849 25.07 13.9 57.1 71 8.9 48
20:00 1020 30.12 849 25.07 14.1 57.3 72 9.1 48.3
20:05 1020 30.12 849 25.07 13.9 57 70 8.6 47.5
20:10 1020 30.12 849 25.07 13.7 56.7 71 8.5 47.4
20:15 1020 30.12 849 25.07 13.7 56.7 71 8.5 47.3
20:20 1020 30.12 849 25.07 13.7 56.6 69 8.1 46.5
20:25 1020 30.12 849 25.07 13.7 56.6 68 8 46.4
20:30 1020 30.12 849 25.07 13.7 56.6 69 8.2 46.7
20:35 1020 30.12 849 25.07 13.7 56.6 71 8.6 47.4
20:40 1020 30.12 850 25.1 13.6 56.5 72 8.8 47.8
20:45 1020 30.12 850 25.1 13.5 56.4 73 8.8 47.8
20:50 1020 30.12 850 25.1 13.6 56.4 71 8.4 47.1
20:55 1020 30.12 850 25.1 13.6 56.5 71 8.4 47.2
21:00 1020 30.12 850 25.1 13.5 56.4 69 8.1 46.6
21:05 1020 30.12 850 25.1 13.5 56.3 70 8.2 46.8
21:10 1020 30.12 849 25.07 13.5 56.3 71 8.4 47.2
21:15 1020 30.12 849 25.07 13.6 56.4 71 8.5 47.3
21:20 1020 30.12 849 25.07 13.5 56.2 75 9.2 48.5
21:25 1020 30.12 849 25.07 13 55.3 78 9.2 48.6
21:30 1020 30.12 850 25.1 12.6 54.7 79 9.2 48.5
21:35 1020 30.12 850 25.1 12.5 54.4 80 9.2 48.5
21:40 1020 30.12 850 25.1 12.3 54.1 80 8.9 48
21:45 1020 30.12 850 25.1 12.3 54.1 77 8.4 47.1
21:50 1021 30.15 850 25.1 12.3 54.1 76 8.2 46.8
21:55 1021 30.15 850 25.1 12 53.6 77 8.1 46.5
22:00 1021 30.15 850 25.1 11.8 53.3 78 8.1 46.6
22:05 1021 30.15 850 25.1 11.8 53.2 78 8.1 46.6
22:10 1021 30.15 850 25.1 11.8 53.3 76 7.7 45.9
22:15 1021 30.15 850 25.1 11.9 53.3 77 8 46.4
22:20 1021 30.15 850 25.1 11.7 53 79 8.2 46.7
22:25 1021 30.15 850 25.1 11.4 52.6 79 8 46.4
22:30 1021 30.15 850 25.1 11.4 52.5 77 7.6 45.6
22:35 1021 30.15 850 25.1 11.4 52.6 78 7.7 45.8
22:40 1021 30.15 850 25.1 11.4 52.4 79 7.8 46
22:45 1021 30.15 850 25.1 11.3 52.3 78 7.6 45.6
22:50 1021 30.15 850 25.1 11.2 52.2 79 7.6 45.8
22:55 1021 30.15 850 25.1 11.2 52.1 79 7.7 45.9
23:00 1021 30.15 850 25.1 11.2 52.1 79 7.7 45.9
23:05 1020 30.12 849 25.07 11.1 51.9 79 7.7 45.8
23:10 1020 30.12 849 25.07 11 51.8 81 7.8 46.1
23:15 1020 30.12 849 25.07 10.9 51.6 81 7.7 45.9
23:20 1020 30.12 849 25.07 10.7 51.2 81 7.5 45.5
23:25 1020 30.12 849 25.07 10.6 51 80 7.3 45.1
23:30 1020 30.12 849 25.07 10.6 51.1 79 7.1 44.8
23:35 1020 30.12 849 25.07 10.7 51.3 78 7.1 44.8
23:40 1020 30.12 849 25.07 10.9 51.5 75 6.7 44
23:45 1020 30.12 849 25.07 11 51.7 76 6.8 44.3
23:50 1020 30.12 849 25.07 10.8 51.4 76 6.8 44.2
23:55 1020 30.12 849 25.07 10.7 51.2 76 6.6 43.9
24:00 1020 30.12 849 25.07 10.8 51.4 76 6.8 44.3